Active alerts


No alerts


weather webcam more information weather webcam


Thunder radar more information blitzortung!


Rain radar more information rain snow radar


Visit our other weather sites:

Template documentation
and downloads

And another site


Nearby METAR Reports

   
EBBR - Brussels International Airport, Belgium
Distance from station: W 9 mi
Updated: Sep 24 2020 8:50 pm
Few Clouds  
Few Clouds  
   Wind: SW 11.5 mph
Wind: SW 11.5 mph
Temperature: 48.2°F
Wind Chill: 42.8°F
Dew Point: 44.6°F
Humidity: 87%
Barometer: 29.41 inHg
Clouds: Few Clouds
Visibility: More than 6 mi
Cloud details: Few Clouds 2000 ft
EBBR 250150Z 22010KT 9999 FEW020 09/07 Q0996 NOSIG
EBBE - Beauvechain (Bevekom), Belgium
Distance from station: SSE 10 mi
Updated: Sep 24 2020 8:25 pm
Mostly Cloudy  
Mostly Cloudy  
   Wind: SW 13.8 mph
Wind: SW 13.8 mph
Temperature: 50°F
Wind Chill: 44.6°F
Dew Point: 42.8°F
Humidity: 76%
Barometer: 29.41 inHg
Clouds: Mostly Cloudy
Visibility: More than 6 mi
Cloud details: Mostly Cloudy 17000 ft
EBBE 250125Z AUTO 22012KT 9999 BKN170/// 10/06 Q0996 BLU
EBDT - Schaffen, Belgium
Distance from station: ENE 18 mi
Updated: Sep 24 2020 8:25 pm
Mostly Cloudy  
Mostly Cloudy  
   Wind: SW 9.2 mph
Wind: SW 9.2 mph
Temperature: 50°F
Wind Chill: 46.4°F
Dew Point: 44.6°F
Humidity: 82%
Barometer: 29.41 inHg
Clouds: Mostly Cloudy
Visibility: More than 6 mi
Cloud details: Few Clouds 5000 ft,
Mostly Cloudy 18000 ft
EBDT 250125Z AUTO 22008KT 9999 FEW050/// BKN180/// 10/07 Q0996 BLU
EBAW - Antwerp/Deurne, Belgium
Distance from station: NNW 23 mi
Updated: Sep 24 2020 8:50 pm
Few Clouds  
Few Clouds  
   Wind: SSW 11.5 mph
Wind: SSW 11.5 mph
Temperature: 50°F
Wind Chill: 46.4°F
Dew Point: 46.4°F
Humidity: 88%
Barometer: 29.41 inHg
Clouds: Few Clouds
Visibility: More than 6 mi
Cloud details: Few Clouds 1900 ft
EBAW 250150Z AUTO 21010KT 9999 // FEW019/// 10/08 Q0996
EBCI - Charleroi/Gosselies, Belgium
Distance from station: SSW 32 mi
Updated: Sep 24 2020 8:50 pm
Few Clouds  
Few Clouds  
   Wind: SSW 15 mph
Wind: SSW 15 mph
Temperature: 48.2°F
Wind Chill: 42.8°F
Dew Point: 42.8°F
Humidity: 82%
Barometer: 29.44 inHg
Clouds: Few Clouds
Visibility: More than 6 mi
Cloud details: Few Clouds 1500 ft
EBCI 250150Z 21013KT 9999 FEW015 09/06 Q0997 NOSIG
EBLG - Bierset/Liege, Belgium
Distance from station: ESE 38 mi
Updated: Sep 24 2020 8:50 pm
Clear  
Clear  
   Wind: SW 17.3 mph
Wind: SW 17.3 mph
Temperature: 50°F
Wind Chill: 44.6°F
Dew Point: 44.6°F
Humidity: 82%
Barometer: 29.44 inHg
Visibility: More than 6 mi
Cloud details: Clear
EBLG 250150Z 23015KT CAVOK 10/07 Q0997 NOSIG

Script developed by  Saratoga-weather.org Adapted for the template by  Weerstation Leuven

You find our weather info also at:

Weather Underground

Midwestern Weather Network

Citizen Weather Observer Program (CWOP)

HAMweather, WeatherForYou, PWS Weather

Equipment we use:

Weather-station
Davis VP2

Weather-program
Cumulus

Davis VP2

Cumulus